sensor_id;sensor_type;location;lat;lon;timestamp;pressure;altitude;pressure_sealevel;temperature;humidity
21431;BME280;10876;49.038;10.608;2023-06-05T00:00:49;99038.06;;;14.10;100.00
21431;BME280;10876;49.038;10.608;2023-06-05T00:03:19;99034.19;;;14.11;100.00
21431;BME280;10876;49.038;10.608;2023-06-05T00:05:49;99028.47;;;14.16;100.00
21431;BME280;10876;49.038;10.608;2023-06-05T00:08:16;99028.19;;;14.09;100.00
21431;BME280;10876;49.038;10.608;2023-06-05T00:10:46;99019.91;;;14.09;100.00
21431;BME280;10876;49.038;10.608;2023-06-05T00:13:13;99024.78;;;14.12;100.00
21431;BME280;10876;49.038;10.608;2023-06-05T00:15:41;99029.16;;;14.04;100.00
21431;BME280;10876;49.038;10.608;2023-06-05T00:18:08;99040.66;;;13.97;100.00
21431;BME280;10876;49.038;10.608;2023-06-05T00:20:39;99033.56;;;13.96;100.00
21431;BME280;10876;49.038;10.608;2023-06-05T00:23:08;99030.31;;;13.94;100.00
21431;BME280;10876;49.038;10.608;2023-06-05T00:25:36;99033.06;;;13.94;100.00
21431;BME280;10876;49.038;10.608;2023-06-05T00:28:04;99037.28;;;13.92;100.00
21431;BME280;10876;49.038;10.608;2023-06-05T00:30:39;99029.31;;;13.90;100.00
21431;BME280;10876;49.038;10.608;2023-06-05T00:33:06;99029.81;;;13.92;100.00
21431;BME280;10876;49.038;10.608;2023-06-05T00:35:32;99025.44;;;13.91;100.00
21431;BME280;10876;49.038;10.608;2023-06-05T00:37:59;99031.94;;;13.78;100.00
21431;BME280;10876;49.038;10.608;2023-06-05T00:40:26;99026.13;;;13.71;100.00
21431;BME280;10876;49.038;10.608;2023-06-05T00:42:52;99019.63;;;13.75;100.00
21431;BME280;10876;49.038;10.608;2023-06-05T00:45:19;99014.75;;;13.72;100.00
21431;BME280;10876;49.038;10.608;2023-06-05T00:47:47;99021.41;;;13.63;100.00
21431;BME280;10876;49.038;10.608;2023-06-05T00:50:14;99023.16;;;13.59;100.00
21431;BME280;10876;49.038;10.608;2023-06-05T00:52:43;99029.97;;;13.70;100.00
21431;BME280;10876;49.038;10.608;2023-06-05T00:55:10;99037.72;;;13.50;100.00
21431;BME280;10876;49.038;10.608;2023-06-05T00:57:38;99044.06;;;13.42;100.00
21431;BME280;10876;49.038;10.608;2023-06-05T01:00:06;99053.63;;;13.45;100.00
21431;BME280;10876;49.038;10.608;2023-06-05T01:02:34;99055.69;;;13.31;100.00
21431;BME280;10876;49.038;10.608;2023-06-05T01:05:04;99059.28;;;13.40;100.00
21431;BME280;10876;49.038;10.608;2023-06-05T01:07:31;99053.25;;;13.29;100.00
21431;BME280;10876;49.038;10.608;2023-06-05T01:09:59;99054.69;;;13.26;100.00
21431;BME280;10876;49.038;10.608;2023-06-05T01:12:29;99057.75;;;13.25;100.00
21431;BME280;10876;49.038;10.608;2023-06-05T01:15:01;99051.81;;;13.32;100.00
21431;BME280;10876;49.038;10.608;2023-06-05T01:17:30;99054.50;;;13.23;100.00
21431;BME280;10876;49.038;10.608;2023-06-05T01:19:57;99051.81;;;13.32;100.00
21431;BME280;10876;49.038;10.608;2023-06-05T01:22:36;99051.66;;;13.28;100.00
21431;BME280;10876;49.038;10.608;2023-06-05T01:25:07;99052.88;;;13.22;100.00
21431;BME280;10876;49.038;10.608;2023-06-05T01:27:40;99052.41;;;13.20;100.00
21431;BME280;10876;49.038;10.608;2023-06-05T01:30:14;99057.16;;;13.28;100.00
21431;BME280;10876;49.038;10.608;2023-06-05T01:32:48;99045.75;;;13.21;100.00
21431;BME280;10876;49.038;10.608;2023-06-05T01:35:19;99048.84;;;13.19;100.00
21431;BME280;10876;49.038;10.608;2023-06-05T01:37:53;99049.47;;;13.16;100.00
21431;BME280;10876;49.038;10.608;2023-06-05T01:40:23;99050.72;;;13.10;100.00
21431;BME280;10876;49.038;10.608;2023-06-05T01:42:52;99052.03;;;13.04;100.00
21431;BME280;10876;49.038;10.608;2023-06-05T01:45:20;99060.91;;;12.61;100.00
21431;BME280;10876;49.038;10.608;2023-06-05T01:47:46;99055.19;;;12.80;100.00
21431;BME280;10876;49.038;10.608;2023-06-05T01:50:15;99070.09;;;12.56;100.00
21431;BME280;10876;49.038;10.608;2023-06-05T01:52:42;99075.44;;;12.61;100.00
21431;BME280;10876;49.038;10.608;2023-06-05T01:55:14;99072.06;;;12.65;100.00
21431;BME280;10876;49.038;10.608;2023-06-05T01:57:44;99071.25;;;12.64;100.00
21431;BME280;10876;49.038;10.608;2023-06-05T02:00:12;99075.59;;;12.56;100.00
21431;BME280;10876;49.038;10.608;2023-06-05T02:02:41;99081.09;;;12.56;100.00
21431;BME280;10876;49.038;10.608;2023-06-05T02:05:09;99083.06;;;12.65;100.00
21431;BME280;10876;49.038;10.608;2023-06-05T02:07:37;99080.69;;;12.72;100.00
21431;BME280;10876;49.038;10.608;2023-06-05T02:10:06;99075.00;;;12.68;100.00
21431;BME280;10876;49.038;10.608;2023-06-05T02:12:33;99083.44;;;12.72;100.00
21431;BME280;10876;49.038;10.608;2023-06-05T02:15:05;99087.81;;;12.50;100.00
21431;BME280;10876;49.038;10.608;2023-06-05T02:17:32;99084.66;;;12.57;100.00
21431;BME280;10876;49.038;10.608;2023-06-05T02:20:00;99080.63;;;12.63;100.00
21431;BME280;10876;49.038;10.608;2023-06-05T02:22:27;99080.13;;;12.61;100.00
21431;BME280;10876;49.038;10.608;2023-06-05T02:24:54;99078.16;;;12.53;100.00
21431;BME280;10876;49.038;10.608;2023-06-05T02:27:22;99077.84;;;12.54;100.00
21431;BME280;10876;49.038;10.608;2023-06-05T02:29:51;99068.84;;;12.62;100.00
21431;BME280;10876;49.038;10.608;2023-06-05T02:32:20;99071.72;;;12.57;100.00
21431;BME280;10876;49.038;10.608;2023-06-05T02:34:51;99068.47;;;12.55;100.00
21431;BME280;10876;49.038;10.608;2023-06-05T02:37:22;99067.84;;;12.58;100.00
21431;BME280;10876;49.038;10.608;2023-06-05T02:39:49;99074.59;;;12.52;100.00
21431;BME280;10876;49.038;10.608;2023-06-05T02:42:16;99076.41;;;12.57;100.00
21431;BME280;10876;49.038;10.608;2023-06-05T02:44:44;99077.47;;;12.47;100.00
21431;BME280;10876;49.038;10.608;2023-06-05T02:47:11;99084.22;;;12.41;100.00
21431;BME280;10876;49.038;10.608;2023-06-05T02:49:40;99083.41;;;12.40;100.00
21431;BME280;10876;49.038;10.608;2023-06-05T02:52:07;99075.84;;;12.46;100.00
21431;BME280;10876;49.038;10.608;2023-06-05T02:54:34;99079.88;;;12.40;100.00
21431;BME280;10876;49.038;10.608;2023-06-05T02:57:00;99079.38;;;12.38;100.00
21431;BME280;10876;49.038;10.608;2023-06-05T02:59:27;99080.38;;;12.20;100.00
21431;BME280;10876;49.038;10.608;2023-06-05T03:01:57;99085.13;;;12.28;100.00
21431;BME280;10876;49.038;10.608;2023-06-05T03:04:24;99083.25;;;12.14;100.00
21431;BME280;10876;49.038;10.608;2023-06-05T03:06:54;99082.38;;;12.05;100.00
21431;BME280;10876;49.038;10.608;2023-06-05T03:09:22;99085.50;;;12.12;100.00
21431;BME280;10876;49.038;10.608;2023-06-05T03:11:50;99083.75;;;12.16;100.00
21431;BME280;10876;49.038;10.608;2023-06-05T03:14:17;99082.06;;;12.29;100.00
21431;BME280;10876;49.038;10.608;2023-06-05T03:16:44;99088.22;;;12.35;100.00
21431;BME280;10876;49.038;10.608;2023-06-05T03:19:12;99078.84;;;12.36;100.00
21431;BME280;10876;49.038;10.608;2023-06-05T03:21:39;99079.47;;;12.33;100.00
21431;BME280;10876;49.038;10.608;2023-06-05T03:24:09;99086.13;;;12.32;100.00
21431;BME280;10876;49.038;10.608;2023-06-05T03:26:38;99080.63;;;12.32;100.00
21431;BME280;10876;49.038;10.608;2023-06-05T03:29:06;99084.63;;;12.26;100.00
21431;BME280;10876;49.038;10.608;2023-06-05T03:31:33;99071.88;;;12.30;100.00
21431;BME280;10876;49.038;10.608;2023-06-05T03:34:00;99081.44;;;12.32;100.00
21431;BME280;10876;49.038;10.608;2023-06-05T03:36:29;99073.88;;;12.38;100.00
21431;BME280;10876;49.038;10.608;2023-06-05T03:38:59;99076.75;;;12.33;100.00
21431;BME280;10876;49.038;10.608;2023-06-05T03:41:28;99075.75;;;12.29;100.00
21431;BME280;10876;49.038;10.608;2023-06-05T03:43:55;99069.28;;;12.25;100.00
21431;BME280;10876;49.038;10.608;2023-06-05T03:46:24;99078.63;;;12.24;100.00
21431;BME280;10876;49.038;10.608;2023-06-05T03:48:55;99086.97;;;12.18;100.00
21431;BME280;10876;49.038;10.608;2023-06-05T03:51:24;99086.88;;;12.24;100.00
21431;BME280;10876;49.038;10.608;2023-06-05T03:53:55;99089.59;;;12.24;100.00
21431;BME280;10876;49.038;10.608;2023-06-05T03:56:24;99102.16;;;12.16;100.00
21431;BME280;10876;49.038;10.608;2023-06-05T03:58:55;99109.78;;;12.19;100.00
21431;BME280;10876;49.038;10.608;2023-06-05T04:01:23;99104.72;;;12.12;100.00
21431;BME280;10876;49.038;10.608;2023-06-05T04:03:50;99111.34;;;12.11;100.00
21431;BME280;10876;49.038;10.608;2023-06-05T04:06:17;99116.09;;;12.20;100.00
21431;BME280;10876;49.038;10.608;2023-06-05T04:08:44;99118.44;;;12.12;100.00
21431;BME280;10876;49.038;10.608;2023-06-05T04:11:11;99116.72;;;12.16;100.00
21431;BME280;10876;49.038;10.608;2023-06-05T04:13:38;99115.47;;;12.23;100.00
21431;BME280;10876;49.038;10.608;2023-06-05T04:16:06;99116.09;;;12.20;100.00
21431;BME280;10876;49.038;10.608;2023-06-05T04:18:34;99124.44;;;12.14;100.00
21431;BME280;10876;49.038;10.608;2023-06-05T04:21:01;99126.69;;;12.12;100.00
21431;BME280;10876;49.038;10.608;2023-06-05T04:23:28;99121.19;;;12.12;100.00
21431;BME280;10876;49.038;10.608;2023-06-05T04:25:55;99122.84;;;12.13;100.00
21431;BME280;10876;49.038;10.608;2023-06-05T04:28:22;99118.72;;;12.25;100.00
21431;BME280;10876;49.038;10.608;2023-06-05T04:30:49;99120.50;;;12.29;100.00
21431;BME280;10876;49.038;10.608;2023-06-05T04:33:17;99124.34;;;12.42;100.00
21431;BME280;10876;49.038;10.608;2023-06-05T04:35:44;99115.31;;;12.50;100.00
21431;BME280;10876;49.038;10.608;2023-06-05T04:38:11;99112.59;;;12.59;100.00
21431;BME280;10876;49.038;10.608;2023-06-05T04:40:38;99116.78;;;12.48;100.00
21431;BME280;10876;49.038;10.608;2023-06-05T04:43:05;99111.63;;;12.55;100.00
21431;BME280;10876;49.038;10.608;2023-06-05T04:45:32;99109.22;;;12.53;100.00
21431;BME280;10876;49.038;10.608;2023-06-05T04:47:59;99121.19;;;12.57;100.00
21431;BME280;10876;49.038;10.608;2023-06-05T04:50:28;99117.84;;;12.69;100.00
21431;BME280;10876;49.038;10.608;2023-06-05T04:52:55;99117.41;;;12.76;100.00
21431;BME280;10876;49.038;10.608;2023-06-05T04:55:22;99113.53;;;12.77;100.00
21431;BME280;10876;49.038;10.608;2023-06-05T04:57:49;99119.03;;;12.77;100.00
21431;BME280;10876;49.038;10.608;2023-06-05T05:00:17;99116.50;;;12.89;100.00
21431;BME280;10876;49.038;10.608;2023-06-05T05:02:44;99120.22;;;12.93;100.00
21431;BME280;10876;49.038;10.608;2023-06-05T05:05:12;99115.59;;;13.02;100.00
21431;BME280;10876;49.038;10.608;2023-06-05T05:07:42;99107.56;;;13.15;100.00
21431;BME280;10876;49.038;10.608;2023-06-05T05:10:10;99107.88;;;13.22;100.00
21431;BME280;10876;49.038;10.608;2023-06-05T05:12:37;99103.41;;;13.26;100.00
21431;BME280;10876;49.038;10.608;2023-06-05T05:15:05;99110.88;;;13.34;100.00
21431;BME280;10876;49.038;10.608;2023-06-05T05:17:32;99115.75;;;13.37;100.00
21431;BME280;10876;49.038;10.608;2023-06-05T05:19:59;99104.75;;;13.37;100.00
21431;BME280;10876;49.038;10.608;2023-06-05T05:22:26;99105.53;;;13.38;100.00
21431;BME280;10876;49.038;10.608;2023-06-05T05:24:54;99111.53;;;13.31;100.00
21431;BME280;10876;49.038;10.608;2023-06-05T05:27:21;99113.78;;;13.29;100.00
21431;BME280;10876;49.038;10.608;2023-06-05T05:29:50;99110.25;;;13.37;100.00
21431;BME280;10876;49.038;10.608;2023-06-05T05:32:16;99116.25;;;13.39;100.00
21431;BME280;10876;49.038;10.608;2023-06-05T05:34:43;99120.47;;;13.45;100.00
21431;BME280;10876;49.038;10.608;2023-06-05T05:37:10;99114.97;;;13.45;100.00
21431;BME280;10876;49.038;10.608;2023-06-05T05:39:37;99112.41;;;13.58;100.00
21431;BME280;10876;49.038;10.608;2023-06-05T05:42:06;99113.84;;;13.64;100.00
21431;BME280;10876;49.038;10.608;2023-06-05T05:44:33;99115.81;;;13.72;100.00
21431;BME280;10876;49.038;10.608;2023-06-05T05:47:01;99106.78;;;13.97;100.00
21431;BME280;10876;49.038;10.608;2023-06-05T05:49:28;99104.81;;;14.24;100.00
21431;BME280;10876;49.038;10.608;2023-06-05T05:51:55;99100.41;;;14.40;100.00
21431;BME280;10876;49.038;10.608;2023-06-05T05:54:22;99084.97;;;14.74;100.00
21431;BME280;10876;49.038;10.608;2023-06-05T05:56:52;99080.53;;;14.82;100.00
21431;BME280;10876;49.038;10.608;2023-06-05T05:59:21;99077.84;;;15.12;100.00
21431;BME280;10876;49.038;10.608;2023-06-05T06:01:48;99068.53;;;15.16;100.00
21431;BME280;10876;49.038;10.608;2023-06-05T06:04:16;99057.41;;;15.33;100.00
21431;BME280;10876;49.038;10.608;2023-06-05T06:06:43;99053.66;;;15.38;100.00
21431;BME280;10876;49.038;10.608;2023-06-05T06:09:12;99047.94;;;15.64;100.00
21431;BME280;10876;49.038;10.608;2023-06-05T06:11:40;99034.19;;;15.85;100.00
21431;BME280;10876;49.038;10.608;2023-06-05T06:14:07;99033.84;;;16.20;100.00
21431;BME280;10876;49.038;10.608;2023-06-05T06:16:37;99027.50;;;16.19;100.00
21431;BME280;10876;49.038;10.608;2023-06-05T06:19:04;99016.03;;;16.30;100.00
21431;BME280;10876;49.038;10.608;2023-06-05T06:21:31;99015.88;;;16.72;100.00
21431;BME280;10876;49.038;10.608;2023-06-05T06:23:59;99006.19;;;16.65;100.00
21431;BME280;10876;49.038;10.608;2023-06-05T06:26:26;99004.16;;;16.87;100.00
21431;BME280;10876;49.038;10.608;2023-06-05T06:28:53;99001.75;;;16.85;100.00
21431;BME280;10876;49.038;10.608;2023-06-05T06:31:23;98994.34;;;16.89;100.00
21431;BME280;10876;49.038;10.608;2023-06-05T06:33:51;98991.94;;;17.00;100.00
21431;BME280;10876;49.038;10.608;2023-06-05T06:36:18;98987.28;;;17.17;100.00
21431;BME280;10876;49.038;10.608;2023-06-05T06:38:47;98988.66;;;17.35;100.00
21431;BME280;10876;49.038;10.608;2023-06-05T06:41:14;98979.41;;;17.31;100.00
21431;BME280;10876;49.038;10.608;2023-06-05T06:43:42;98974.88;;;17.51;100.00
21431;BME280;10876;49.038;10.608;2023-06-05T06:46:09;98969.03;;;17.40;100.00
21431;BME280;10876;49.038;10.608;2023-06-05T06:48:36;98971.19;;;17.87;100.00
21431;BME280;10876;49.038;10.608;2023-06-05T06:51:04;98967.44;;;17.67;100.00
21431;BME280;10876;49.038;10.608;2023-06-05T06:53:31;98965.22;;;17.73;100.00
21431;BME280;10876;49.038;10.608;2023-06-05T06:55:58;98959.06;;;18.08;100.00
21431;BME280;10876;49.038;10.608;2023-06-05T06:58:26;98955.53;;;18.23;100.00
21431;BME280;10876;49.038;10.608;2023-06-05T07:00:53;98960.81;;;18.28;100.00
21431;BME280;10876;49.038;10.608;2023-06-05T07:03:20;98956.50;;;18.31;100.00
21431;BME280;10876;49.038;10.608;2023-06-05T07:05:49;98957.06;;;18.36;100.00
21431;BME280;10876;49.038;10.608;2023-06-05T07:08:22;98966.81;;;18.62;100.00
21431;BME280;10876;49.038;10.608;2023-06-05T07:10:49;98951.97;;;18.70;100.00
21431;BME280;10876;49.038;10.608;2023-06-05T07:13:16;98942.59;;;18.75;100.00
21431;BME280;10876;49.038;10.608;2023-06-05T07:15:44;98946.38;;;19.02;100.00
21431;BME280;10876;49.038;10.608;2023-06-05T07:18:11;98954.16;;;19.12;100.00
21431;BME280;10876;49.038;10.608;2023-06-05T07:20:39;98948.78;;;19.39;100.00
21431;BME280;10876;49.038;10.608;2023-06-05T07:23:06;98949.53;;;19.55;100.00
21431;BME280;10876;49.038;10.608;2023-06-05T07:25:34;98946.16;;;19.46;100.00
21431;BME280;10876;49.038;10.608;2023-06-05T07:28:08;98944.94;;;19.82;100.00
21431;BME280;10876;49.038;10.608;2023-06-05T07:30:42;98943.59;;;20.15;100.00
21431;BME280;10876;49.038;10.608;2023-06-05T07:33:10;98937.66;;;21.12;100.00
21431;BME280;10876;49.038;10.608;2023-06-05T07:35:37;98936.94;;;21.19;100.00
21431;BME280;10876;49.038;10.608;2023-06-05T07:38:04;98947.25;;;21.75;100.00
21431;BME280;10876;49.038;10.608;2023-06-05T07:40:31;98940.06;;;21.74;100.00
21431;BME280;10876;49.038;10.608;2023-06-05T07:42:59;98926.50;;;21.72;100.00
21431;BME280;10876;49.038;10.608;2023-06-05T07:45:26;98924.09;;;21.71;100.00
21431;BME280;10876;49.038;10.608;2023-06-05T07:47:53;98923.00;;;21.49;100.00
21431;BME280;10876;49.038;10.608;2023-06-05T07:50:20;98924.81;;;22.35;100.00
21431;BME280;10876;49.038;10.608;2023-06-05T07:52:47;98905.22;;;21.94;100.00
21431;BME280;10876;49.038;10.608;2023-06-05T07:55:14;98902.09;;;21.99;100.00
21431;BME280;10876;49.038;10.608;2023-06-05T07:57:42;98903.00;;;22.11;100.00
21431;BME280;10876;49.038;10.608;2023-06-05T08:00:12;98904.53;;;22.45;100.00
21431;BME280;10876;49.038;10.608;2023-06-05T08:02:39;98894.16;;;22.98;100.00
21431;BME280;10876;49.038;10.608;2023-06-05T08:05:07;98902.16;;;22.96;100.00
21431;BME280;10876;49.038;10.608;2023-06-05T08:07:34;98897.34;;;22.96;100.00
21431;BME280;10876;49.038;10.608;2023-06-05T08:10:01;98879.53;;;22.63;100.00
21431;BME280;10876;49.038;10.608;2023-06-05T08:12:28;98875.75;;;22.89;100.00
21431;BME280;10876;49.038;10.608;2023-06-05T08:14:55;98869.91;;;23.12;100.00
21431;BME280;10876;49.038;10.608;2023-06-05T08:17:24;98867.66;;;22.77;100.00
21431;BME280;10876;49.038;10.608;2023-06-05T08:19:51;98875.16;;;23.21;100.00
21431;BME280;10876;49.038;10.608;2023-06-05T08:22:18;98867.91;;;23.09;100.00
21431;BME280;10876;49.038;10.608;2023-06-05T08:24:45;98873.50;;;23.13;100.00
21431;BME280;10876;49.038;10.608;2023-06-05T08:27:14;98851.31;;;23.63;100.00
21431;BME280;10876;49.038;10.608;2023-06-05T08:29:43;98854.91;;;23.53;100.00
21431;BME280;10876;49.038;10.608;2023-06-05T08:32:10;98845.13;;;23.07;100.00
21431;BME280;10876;49.038;10.608;2023-06-05T08:34:39;98832.13;;;23.58;100.00
21431;BME280;10876;49.038;10.608;2023-06-05T08:37:06;98842.22;;;23.95;100.00
21431;BME280;10876;49.038;10.608;2023-06-05T08:39:34;98848.22;;;24.08;100.00
21431;BME280;10876;49.038;10.608;2023-06-05T08:42:04;98836.25;;;24.43;100.00
21431;BME280;10876;49.038;10.608;2023-06-05T08:44:33;98829.41;;;23.79;100.00
21431;BME280;10876;49.038;10.608;2023-06-05T08:47:01;98838.91;;;23.53;100.00
21431;BME280;10876;49.038;10.608;2023-06-05T08:49:33;98825.84;;;24.08;100.00
21431;BME280;10876;49.038;10.608;2023-06-05T08:52:06;98836.63;;;23.98;100.00
21431;BME280;10876;49.038;10.608;2023-06-05T08:54:37;98823.81;;;23.83;100.00
21431;BME280;10876;49.038;10.608;2023-06-05T08:57:07;98833.03;;;24.19;100.00
21431;BME280;10876;49.038;10.608;2023-06-05T08:59:34;98811.44;;;24.23;100.00
21431;BME280;10876;49.038;10.608;2023-06-05T09:02:04;98810.63;;;24.26;100.00
21431;BME280;10876;49.038;10.608;2023-06-05T09:04:31;98830.22;;;24.09;100.00
21431;BME280;10876;49.038;10.608;2023-06-05T09:06:58;98803.84;;;24.27;100.00
21431;BME280;10876;49.038;10.608;2023-06-05T09:09:27;98795.81;;;24.40;100.00
21431;BME280;10876;49.038;10.608;2023-06-05T09:12:02;98790.63;;;24.53;100.00
21431;BME280;10876;49.038;10.608;2023-06-05T09:14:29;98792.97;;;24.76;100.00
21431;BME280;10876;49.038;10.608;2023-06-05T09:16:59;98788.84;;;25.09;100.00
21431;BME280;10876;49.038;10.608;2023-06-05T09:19:38;98791.91;;;25.47;100.00
21431;BME280;10876;49.038;10.608;2023-06-05T09:22:12;98784.25;;;24.27;100.00
21431;BME280;10876;49.038;10.608;2023-06-05T09:24:41;98790.63;;;24.28;100.00
21431;BME280;10876;49.038;10.608;2023-06-05T09:27:09;98773.78;;;23.60;100.00
21431;BME280;10876;49.038;10.608;2023-06-05T09:29:38;98755.84;;;23.82;100.00
21431;BME280;10876;49.038;10.608;2023-06-05T09:32:07;98728.28;;;23.70;100.00
21431;BME280;10876;49.038;10.608;2023-06-05T09:34:37;98736.25;;;23.61;100.00
21431;BME280;10876;49.038;10.608;2023-06-05T09:37:07;98742.66;;;23.79;100.00
21431;BME280;10876;49.038;10.608;2023-06-05T09:39:39;98751.38;;;23.42;100.00
21431;BME280;10876;49.038;10.608;2023-06-05T09:42:10;98768.66;;;24.05;100.00
21431;BME280;10876;49.038;10.608;2023-06-05T09:44:40;98744.25;;;24.45;100.00
21431;BME280;10876;49.038;10.608;2023-06-05T09:47:13;98727.28;;;24.88;100.00
21431;BME280;10876;49.038;10.608;2023-06-05T09:49:47;98743.28;;;24.91;100.00
21431;BME280;10876;49.038;10.608;2023-06-05T09:52:17;98730.13;;;25.54;100.00
21431;BME280;10876;49.038;10.608;2023-06-05T09:54:48;98731.31;;;24.87;100.00
21431;BME280;10876;49.038;10.608;2023-06-05T09:57:16;98721.75;;;24.66;100.00
21431;BME280;10876;49.038;10.608;2023-06-05T09:59:50;98717.38;;;24.62;100.00
21431;BME280;10876;49.038;10.608;2023-06-05T10:02:20;98714.31;;;25.23;100.00
21431;BME280;10876;49.038;10.608;2023-06-05T10:04:49;98705.59;;;24.99;100.00
21431;BME280;10876;49.038;10.608;2023-06-05T10:07:18;98718.00;;;25.68;100.00
21431;BME280;10876;49.038;10.608;2023-06-05T10:09:49;98695.22;;;24.96;100.00
21431;BME280;10876;49.038;10.608;2023-06-05T10:12:18;98692.13;;;24.72;100.00
21431;BME280;10876;49.038;10.608;2023-06-05T10:14:47;98686.03;;;24.88;100.00
21431;BME280;10876;49.038;10.608;2023-06-05T10:17:15;98696.91;;;24.72;100.00
21431;BME280;10876;49.038;10.608;2023-06-05T10:19:43;98689.59;;;24.96;100.00
21431;BME280;10876;49.038;10.608;2023-06-05T10:22:11;98703.78;;;25.93;100.00
21431;BME280;10876;49.038;10.608;2023-06-05T10:24:57;98704.13;;;24.69;100.00
21431;BME280;10876;49.038;10.608;2023-06-05T10:27:53;98699.34;;;24.66;100.00
21431;BME280;10876;49.038;10.608;2023-06-05T10:30:58;98696.84;;;25.56;100.00
21431;BME280;10876;49.038;10.608;2023-06-05T10:33:45;98698.09;;;24.75;100.00
21431;BME280;10876;49.038;10.608;2023-06-05T10:36:37;98715.50;;;24.01;100.00
21431;BME280;10876;49.038;10.608;2023-06-05T10:39:09;98705.38;;;24.61;100.00
21431;BME280;10876;49.038;10.608;2023-06-05T10:41:37;98718.63;;;24.43;100.00
21431;BME280;10876;49.038;10.608;2023-06-05T10:44:06;98696.84;;;24.90;100.00
21431;BME280;10876;49.038;10.608;2023-06-05T10:46:35;98699.59;;;25.63;100.00
21431;BME280;10876;49.038;10.608;2023-06-05T10:49:09;98684.72;;;25.14;100.00
21431;BME280;10876;49.038;10.608;2023-06-05T10:51:39;98706.69;;;24.10;100.00
21431;BME280;10876;49.038;10.608;2023-06-05T10:54:09;98717.47;;;23.97;100.00
21431;BME280;10876;49.038;10.608;2023-06-05T10:56:56;98705.38;;;24.54;100.00
21431;BME280;10876;49.038;10.608;2023-06-05T10:59:27;98682.31;;;25.09;100.00
21431;BME280;10876;49.038;10.608;2023-06-05T11:02:25;98687.31;;;24.73;100.00
21431;BME280;10876;49.038;10.608;2023-06-05T11:05:17;98722.66;;;24.13;100.00
21431;BME280;10876;49.038;10.608;2023-06-05T11:07:45;98713.03;;;24.25;100.00
21431;BME280;10876;49.038;10.608;2023-06-05T11:10:18;98694.25;;;24.11;100.00
21431;BME280;10876;49.038;10.608;2023-06-05T11:13:00;98674.22;;;24.41;100.00
21431;BME280;10876;49.038;10.608;2023-06-05T11:15:40;98656.78;;;24.89;100.00
21431;BME280;10876;49.038;10.608;2023-06-05T11:18:31;98653.25;;;24.82;100.00
21431;BME280;10876;49.038;10.608;2023-06-05T11:20:59;98664.38;;;24.96;100.00
21431;BME280;10876;49.038;10.608;2023-06-05T11:23:28;98659.16;;;25.57;100.00
21431;BME280;10876;49.038;10.608;2023-06-05T11:25:57;98661.34;;;25.88;100.00
21431;BME280;10876;49.038;10.608;2023-06-05T11:28:43;98641.53;;;26.02;100.00
21431;BME280;10876;49.038;10.608;2023-06-05T11:31:27;98638.94;;;25.84;100.00
21431;BME280;10876;49.038;10.608;2023-06-05T11:33:58;98632.94;;;25.75;100.00
21431;BME280;10876;49.038;10.608;2023-06-05T11:36:25;98632.69;;;26.03;100.00
21431;BME280;10876;49.038;10.608;2023-06-05T11:38:54;98632.28;;;25.04;100.00
21431;BME280;10876;49.038;10.608;2023-06-05T11:41:23;98651.88;;;24.13;100.00
21431;BME280;10876;49.038;10.608;2023-06-05T11:43:53;98661.78;;;24.42;100.00
21431;BME280;10876;49.038;10.608;2023-06-05T11:46:35;98652.31;;;25.62;100.00
21431;BME280;10876;49.038;10.608;2023-06-05T11:49:05;98626.38;;;25.92;100.00
21431;BME280;10876;49.038;10.608;2023-06-05T11:51:33;98609.88;;;26.36;100.00
21431;BME280;10876;49.038;10.608;2023-06-05T11:54:04;98617.47;;;26.35;100.00
21431;BME280;10876;49.038;10.608;2023-06-05T11:56:42;98630.03;;;25.44;100.00
21431;BME280;10876;49.038;10.608;2023-06-05T11:59:16;98641.75;;;24.62;100.00
21431;BME280;10876;49.038;10.608;2023-06-05T12:01:47;98673.81;;;24.28;100.00
21431;BME280;10876;49.038;10.608;2023-06-05T12:04:16;98669.06;;;24.18;100.00
21431;BME280;10876;49.038;10.608;2023-06-05T12:06:45;98664.81;;;24.91;100.00
21431;BME280;10876;49.038;10.608;2023-06-05T12:09:14;98658.94;;;25.34;100.00
21431;BME280;10876;49.038;10.608;2023-06-05T12:11:42;98652.38;;;24.92;100.00
21431;BME280;10876;49.038;10.608;2023-06-05T12:14:13;98663.13;;;25.04;100.00
21431;BME280;10876;49.038;10.608;2023-06-05T12:16:58;98644.94;;;25.79;100.00
21431;BME280;10876;49.038;10.608;2023-06-05T12:19:25;98642.63;;;25.70;100.00
21431;BME280;10876;49.038;10.608;2023-06-05T12:22:01;98619.41;;;26.08;100.00
21431;BME280;10876;49.038;10.608;2023-06-05T12:24:29;98594.16;;;26.04;100.00
21431;BME280;10876;49.038;10.608;2023-06-05T12:27:01;98620.22;;;26.42;100.00
21431;BME280;10876;49.038;10.608;2023-06-05T12:29:31;98616.78;;;25.90;100.00
21431;BME280;10876;49.038;10.608;2023-06-05T12:32:02;98653.81;;;25.25;100.00
21431;BME280;10876;49.038;10.608;2023-06-05T12:34:46;98675.44;;;24.44;100.00
21431;BME280;10876;49.038;10.608;2023-06-05T12:37:23;98664.88;;;24.77;100.00
21431;BME280;10876;49.038;10.608;2023-06-05T12:39:51;98672.47;;;25.46;100.00
21431;BME280;10876;49.038;10.608;2023-06-05T12:42:18;98636.63;;;25.68;100.00
21431;BME280;10876;49.038;10.608;2023-06-05T12:44:45;98628.75;;;25.97;100.00
21431;BME280;10876;49.038;10.608;2023-06-05T12:47:13;98620.56;;;26.14;100.00
21431;BME280;10876;49.038;10.608;2023-06-05T12:49:40;98646.13;;;25.85;100.00
21431;BME280;10876;49.038;10.608;2023-06-05T12:52:08;98660.84;;;24.85;100.00